Terminal Aerodrome Forecast
Issued by NWS Wilmington, OH

Current Version | Previous Version | Text Only | Print | Product List | Glossary Off
Versions: 1 2 3 4 5 6 7 8 9 10 11 12 13 14 15 16

000
FTUS41 KILN 261100
TAFILN
TAF
KILN 261134Z 2612/2712 34012KT 4SM -SHRA BR SCT022 OVC040
      TEMPO 2612/2614 2SM -SHRA BR OVC022
     FM261400 33012G22KT 3SM -SHRA BR OVC015
     FM261600 32010G20KT P6SM BKN025
     FM262200 32014KT P6SM SCT040 BKN100
     FM270900 33007KT P6SM BKN050=

USA.gov is the U.S. government's official web portal to all federal, state and local government web resources and services.